sensor_id;sensor_type;location;lat;lon;timestamp;temperature;humidity
3846;DHT22;1938;50.812;7.738;2022-08-25T00:01:51;22.30;1.00
3846;DHT22;1938;50.812;7.738;2022-08-25T00:04:18;22.40;1.00
3846;DHT22;1938;50.812;7.738;2022-08-25T00:06:45;22.40;1.00
3846;DHT22;1938;50.812;7.738;2022-08-25T00:09:13;22.30;1.00
3846;DHT22;1938;50.812;7.738;2022-08-25T00:11:39;22.20;1.00
3846;DHT22;1938;50.812;7.738;2022-08-25T00:14:10;22.30;1.00
3846;DHT22;1938;50.812;7.738;2022-08-25T00:16:36;22.20;1.00
3846;DHT22;1938;50.812;7.738;2022-08-25T00:19:07;22.20;1.00
3846;DHT22;1938;50.812;7.738;2022-08-25T00:21:33;22.10;1.00
3846;DHT22;1938;50.812;7.738;2022-08-25T00:24:00;22.10;1.00
3846;DHT22;1938;50.812;7.738;2022-08-25T00:26:27;22.00;1.00
3846;DHT22;1938;50.812;7.738;2022-08-25T00:28:53;22.10;1.00
3846;DHT22;1938;50.812;7.738;2022-08-25T00:31:20;22.00;1.00
3846;DHT22;1938;50.812;7.738;2022-08-25T00:33:48;22.00;1.00
3846;DHT22;1938;50.812;7.738;2022-08-25T00:36:15;21.90;1.00
3846;DHT22;1938;50.812;7.738;2022-08-25T00:38:43;21.90;1.00
3846;DHT22;1938;50.812;7.738;2022-08-25T00:41:13;21.80;1.00
3846;DHT22;1938;50.812;7.738;2022-08-25T00:46:23;21.80;1.00
3846;DHT22;1938;50.812;7.738;2022-08-25T00:48:58;21.70;1.00
3846;DHT22;1938;50.812;7.738;2022-08-25T00:51:32;21.60;1.00
3846;DHT22;1938;50.812;7.738;2022-08-25T00:53:59;21.50;1.00
3846;DHT22;1938;50.812;7.738;2022-08-25T00:56:27;21.50;1.00
3846;DHT22;1938;50.812;7.738;2022-08-25T00:58:53;21.40;1.00
3846;DHT22;1938;50.812;7.738;2022-08-25T01:01:19;21.40;1.00
3846;DHT22;1938;50.812;7.738;2022-08-25T01:03:45;21.40;1.00
3846;DHT22;1938;50.812;7.738;2022-08-25T01:06:11;21.40;1.00
3846;DHT22;1938;50.812;7.738;2022-08-25T01:08:37;21.40;1.00
3846;DHT22;1938;50.812;7.738;2022-08-25T01:11:05;21.40;1.00
3846;DHT22;1938;50.812;7.738;2022-08-25T01:13:40;21.40;1.00
3846;DHT22;1938;50.812;7.738;2022-08-25T01:16:07;21.40;1.00
3846;DHT22;1938;50.812;7.738;2022-08-25T01:21:11;21.30;1.00
3846;DHT22;1938;50.812;7.738;2022-08-25T01:23:37;21.30;1.00
3846;DHT22;1938;50.812;7.738;2022-08-25T01:28:34;21.20;1.00
3846;DHT22;1938;50.812;7.738;2022-08-25T01:31:00;21.20;1.00
3846;DHT22;1938;50.812;7.738;2022-08-25T01:33:26;21.20;1.00
3846;DHT22;1938;50.812;7.738;2022-08-25T01:35:53;21.10;1.00
3846;DHT22;1938;50.812;7.738;2022-08-25T01:38:19;21.10;1.00
3846;DHT22;1938;50.812;7.738;2022-08-25T01:40:45;21.10;1.00
3846;DHT22;1938;50.812;7.738;2022-08-25T01:43:21;21.10;1.00
3846;DHT22;1938;50.812;7.738;2022-08-25T01:45:49;21.00;1.00
3846;DHT22;1938;50.812;7.738;2022-08-25T01:48:17;20.90;1.00
3846;DHT22;1938;50.812;7.738;2022-08-25T01:50:42;20.90;2.50
3846;DHT22;1938;50.812;7.738;2022-08-25T01:53:23;20.80;3.60
3846;DHT22;1938;50.812;7.738;2022-08-25T01:55:51;20.80;5.50
3846;DHT22;1938;50.812;7.738;2022-08-25T01:58:35;20.80;6.90
3846;DHT22;1938;50.812;7.738;2022-08-25T02:01:07;20.80;8.80
3846;DHT22;1938;50.812;7.738;2022-08-25T02:03:37;20.70;10.80
3846;DHT22;1938;50.812;7.738;2022-08-25T02:06:03;20.70;12.20
3846;DHT22;1938;50.812;7.738;2022-08-25T02:08:29;20.60;14.10
3846;DHT22;1938;50.812;7.738;2022-08-25T02:10:55;20.60;15.50
3846;DHT22;1938;50.812;7.738;2022-08-25T02:13:21;20.60;17.10
3846;DHT22;1938;50.812;7.738;2022-08-25T02:15:50;20.60;18.20
3846;DHT22;1938;50.812;7.738;2022-08-25T02:18:16;20.60;20.30
3846;DHT22;1938;50.812;7.738;2022-08-25T02:20:42;20.50;21.50
3846;DHT22;1938;50.812;7.738;2022-08-25T02:23:08;20.40;23.90
3846;DHT22;1938;50.812;7.738;2022-08-25T02:25:36;20.40;27.00
3846;DHT22;1938;50.812;7.738;2022-08-25T02:28:03;20.30;29.70
3846;DHT22;1938;50.812;7.738;2022-08-25T02:30:29;20.20;35.20
3846;DHT22;1938;50.812;7.738;2022-08-25T02:32:55;20.10;39.30
3846;DHT22;1938;50.812;7.738;2022-08-25T02:35:20;20.10;41.90
3846;DHT22;1938;50.812;7.738;2022-08-25T02:37:49;20.10;46.10
3846;DHT22;1938;50.812;7.738;2022-08-25T02:40:15;20.00;50.40
3846;DHT22;1938;50.812;7.738;2022-08-25T02:42:42;19.90;56.90
3846;DHT22;1938;50.812;7.738;2022-08-25T02:45:07;19.80;66.90
3846;DHT22;1938;50.812;7.738;2022-08-25T02:47:33;19.80;78.40
3846;DHT22;1938;50.812;7.738;2022-08-25T02:50:01;19.80;82.70
3846;DHT22;1938;50.812;7.738;2022-08-25T02:52:28;19.80;90.40
3846;DHT22;1938;50.812;7.738;2022-08-25T02:54:53;19.70;93.10
3846;DHT22;1938;50.812;7.738;2022-08-25T02:57:19;19.70;99.90
3846;DHT22;1938;50.812;7.738;2022-08-25T02:59:45;19.60;99.90
3846;DHT22;1938;50.812;7.738;2022-08-25T03:02:13;19.60;99.90
3846;DHT22;1938;50.812;7.738;2022-08-25T03:04:39;19.60;99.90
3846;DHT22;1938;50.812;7.738;2022-08-25T03:07:04;19.60;99.90
3846;DHT22;1938;50.812;7.738;2022-08-25T03:09:30;19.50;99.90
3846;DHT22;1938;50.812;7.738;2022-08-25T03:11:56;19.50;99.90
3846;DHT22;1938;50.812;7.738;2022-08-25T03:14:21;19.40;99.90
3846;DHT22;1938;50.812;7.738;2022-08-25T03:16:47;19.30;99.90
3846;DHT22;1938;50.812;7.738;2022-08-25T03:19:13;19.30;99.90
3846;DHT22;1938;50.812;7.738;2022-08-25T03:21:39;19.30;99.90
3846;DHT22;1938;50.812;7.738;2022-08-25T03:24:05;19.20;99.90
3846;DHT22;1938;50.812;7.738;2022-08-25T03:26:31;19.20;99.90
3846;DHT22;1938;50.812;7.738;2022-08-25T03:29:16;19.20;99.90
3846;DHT22;1938;50.812;7.738;2022-08-25T03:31:42;19.10;99.90
3846;DHT22;1938;50.812;7.738;2022-08-25T03:34:11;19.10;99.90
3846;DHT22;1938;50.812;7.738;2022-08-25T03:36:37;19.10;99.90
3846;DHT22;1938;50.812;7.738;2022-08-25T03:39:03;19.10;99.90
3846;DHT22;1938;50.812;7.738;2022-08-25T03:41:29;19.10;99.90
3846;DHT22;1938;50.812;7.738;2022-08-25T03:43:57;19.10;99.90
3846;DHT22;1938;50.812;7.738;2022-08-25T03:46:27;19.10;99.90
3846;DHT22;1938;50.812;7.738;2022-08-25T03:48:54;19.10;99.90
3846;DHT22;1938;50.812;7.738;2022-08-25T03:51:26;19.10;99.90
3846;DHT22;1938;50.812;7.738;2022-08-25T03:53:52;19.00;99.90
3846;DHT22;1938;50.812;7.738;2022-08-25T03:56:18;19.00;99.90
3846;DHT22;1938;50.812;7.738;2022-08-25T03:58:44;19.00;99.90
3846;DHT22;1938;50.812;7.738;2022-08-25T04:01:09;19.00;99.90
3846;DHT22;1938;50.812;7.738;2022-08-25T04:03:35;19.00;99.90
3846;DHT22;1938;50.812;7.738;2022-08-25T04:06:02;19.00;99.90
3846;DHT22;1938;50.812;7.738;2022-08-25T04:08:28;19.00;99.90
3846;DHT22;1938;50.812;7.738;2022-08-25T04:10:54;19.00;99.90
3846;DHT22;1938;50.812;7.738;2022-08-25T04:13:20;19.00;99.90
3846;DHT22;1938;50.812;7.738;2022-08-25T04:15:45;19.00;99.90
3846;DHT22;1938;50.812;7.738;2022-08-25T04:18:11;19.00;99.90
3846;DHT22;1938;50.812;7.738;2022-08-25T04:20:38;19.00;99.90
3846;DHT22;1938;50.812;7.738;2022-08-25T04:23:05;19.00;99.90
3846;DHT22;1938;50.812;7.738;2022-08-25T04:25:31;19.00;99.90
3846;DHT22;1938;50.812;7.738;2022-08-25T04:27:56;19.00;99.90
3846;DHT22;1938;50.812;7.738;2022-08-25T04:30:22;19.00;99.90
3846;DHT22;1938;50.812;7.738;2022-08-25T04:32:48;19.00;99.90
3846;DHT22;1938;50.812;7.738;2022-08-25T04:35:15;19.00;99.90
3846;DHT22;1938;50.812;7.738;2022-08-25T04:37:40;19.00;99.90
3846;DHT22;1938;50.812;7.738;2022-08-25T04:40:07;19.00;99.90
3846;DHT22;1938;50.812;7.738;2022-08-25T04:42:33;19.00;99.90
3846;DHT22;1938;50.812;7.738;2022-08-25T04:44:59;19.00;99.90
3846;DHT22;1938;50.812;7.738;2022-08-25T04:47:26;19.10;99.90
3846;DHT22;1938;50.812;7.738;2022-08-25T04:49:52;19.20;99.90
3846;DHT22;1938;50.812;7.738;2022-08-25T04:52:18;19.20;99.90
3846;DHT22;1938;50.812;7.738;2022-08-25T04:54:46;19.20;99.90
3846;DHT22;1938;50.812;7.738;2022-08-25T04:57:12;19.20;99.90
3846;DHT22;1938;50.812;7.738;2022-08-25T04:59:38;19.20;99.90
3846;DHT22;1938;50.812;7.738;2022-08-25T05:02:05;19.20;99.90
3846;DHT22;1938;50.812;7.738;2022-08-25T05:04:33;19.30;99.90
3846;DHT22;1938;50.812;7.738;2022-08-25T05:06:59;19.30;99.90
3846;DHT22;1938;50.812;7.738;2022-08-25T05:09:25;19.40;99.90
3846;DHT22;1938;50.812;7.738;2022-08-25T05:11:51;19.50;99.90
3846;DHT22;1938;50.812;7.738;2022-08-25T05:14:17;19.50;99.90
3846;DHT22;1938;50.812;7.738;2022-08-25T05:16:47;19.60;99.90
3846;DHT22;1938;50.812;7.738;2022-08-25T05:19:13;19.70;99.90
3846;DHT22;1938;50.812;7.738;2022-08-25T05:21:39;19.80;99.90
3846;DHT22;1938;50.812;7.738;2022-08-25T05:24:06;20.00;99.90
3846;DHT22;1938;50.812;7.738;2022-08-25T05:26:32;21.20;99.90
3846;DHT22;1938;50.812;7.738;2022-08-25T05:29:00;24.40;99.90
3846;DHT22;1938;50.812;7.738;2022-08-25T05:31:28;27.20;96.10
3846;DHT22;1938;50.812;7.738;2022-08-25T05:33:54;28.80;57.80
3846;DHT22;1938;50.812;7.738;2022-08-25T05:36:21;30.80;46.70
3846;DHT22;1938;50.812;7.738;2022-08-25T05:38:47;32.10;34.90
3846;DHT22;1938;50.812;7.738;2022-08-25T05:41:18;33.00;27.60
3846;DHT22;1938;50.812;7.738;2022-08-25T05:43:45;34.10;21.90
3846;DHT22;1938;50.812;7.738;2022-08-25T05:46:11;34.80;16.10
3846;DHT22;1938;50.812;7.738;2022-08-25T05:48:38;34.70;14.20
3846;DHT22;1938;50.812;7.738;2022-08-25T05:51:06;34.10;6.10
3846;DHT22;1938;50.812;7.738;2022-08-25T05:53:33;33.00;1.90
3846;DHT22;1938;50.812;7.738;2022-08-25T05:55:59;32.50;1.00
3846;DHT22;1938;50.812;7.738;2022-08-25T05:58:27;33.10;1.00
3846;DHT22;1938;50.812;7.738;2022-08-25T06:00:53;31.70;1.00
3846;DHT22;1938;50.812;7.738;2022-08-25T06:03:19;31.60;1.00
3846;DHT22;1938;50.812;7.738;2022-08-25T06:05:45;32.10;1.00
3846;DHT22;1938;50.812;7.738;2022-08-25T06:08:10;32.10;1.00
3846;DHT22;1938;50.812;7.738;2022-08-25T06:10:36;32.30;1.00
3846;DHT22;1938;50.812;7.738;2022-08-25T06:13:03;33.60;1.00
3846;DHT22;1938;50.812;7.738;2022-08-25T06:15:28;34.00;1.00
3846;DHT22;1938;50.812;7.738;2022-08-25T06:17:55;33.60;1.00
3846;DHT22;1938;50.812;7.738;2022-08-25T06:20:25;33.80;1.00
3846;DHT22;1938;50.812;7.738;2022-08-25T06:22:52;35.40;1.00
3846;DHT22;1938;50.812;7.738;2022-08-25T06:25:21;35.10;1.00
3846;DHT22;1938;50.812;7.738;2022-08-25T06:27:46;35.10;1.00
3846;DHT22;1938;50.812;7.738;2022-08-25T06:30:15;36.20;1.00
3846;DHT22;1938;50.812;7.738;2022-08-25T06:32:43;37.00;1.00
3846;DHT22;1938;50.812;7.738;2022-08-25T06:35:11;36.40;1.00
3846;DHT22;1938;50.812;7.738;2022-08-25T06:37:37;35.20;1.00
3846;DHT22;1938;50.812;7.738;2022-08-25T06:40:05;36.10;1.00
3846;DHT22;1938;50.812;7.738;2022-08-25T06:42:31;37.00;1.00
3846;DHT22;1938;50.812;7.738;2022-08-25T06:44:57;37.20;1.00
3846;DHT22;1938;50.812;7.738;2022-08-25T06:47:23;37.40;1.00
3846;DHT22;1938;50.812;7.738;2022-08-25T06:49:48;36.80;1.00
3846;DHT22;1938;50.812;7.738;2022-08-25T06:52:14;36.50;1.00
3846;DHT22;1938;50.812;7.738;2022-08-25T06:54:40;37.00;1.00
3846;DHT22;1938;50.812;7.738;2022-08-25T06:57:06;35.30;1.00
3846;DHT22;1938;50.812;7.738;2022-08-25T06:59:33;35.20;1.00
3846;DHT22;1938;50.812;7.738;2022-08-25T07:01:59;34.80;1.00
3846;DHT22;1938;50.812;7.738;2022-08-25T07:04:25;34.40;1.00
3846;DHT22;1938;50.812;7.738;2022-08-25T07:06:50;33.90;1.00
3846;DHT22;1938;50.812;7.738;2022-08-25T07:09:16;34.00;1.00
3846;DHT22;1938;50.812;7.738;2022-08-25T07:11:43;35.40;1.00
3846;DHT22;1938;50.812;7.738;2022-08-25T07:14:11;36.90;1.00
3846;DHT22;1938;50.812;7.738;2022-08-25T07:16:38;37.50;1.00
3846;DHT22;1938;50.812;7.738;2022-08-25T07:19:05;36.60;1.00
3846;DHT22;1938;50.812;7.738;2022-08-25T07:21:33;36.90;1.00
3846;DHT22;1938;50.812;7.738;2022-08-25T07:24:03;38.00;1.00
3846;DHT22;1938;50.812;7.738;2022-08-25T07:26:32;38.50;1.00
3846;DHT22;1938;50.812;7.738;2022-08-25T07:29:11;39.50;1.00
3846;DHT22;1938;50.812;7.738;2022-08-25T07:31:37;39.90;1.00
3846;DHT22;1938;50.812;7.738;2022-08-25T07:34:03;40.10;1.00
3846;DHT22;1938;50.812;7.738;2022-08-25T07:36:47;39.30;1.00
3846;DHT22;1938;50.812;7.738;2022-08-25T07:39:13;38.00;1.00
3846;DHT22;1938;50.812;7.738;2022-08-25T07:41:40;38.10;1.00
3846;DHT22;1938;50.812;7.738;2022-08-25T07:44:08;40.30;1.00
3846;DHT22;1938;50.812;7.738;2022-08-25T07:46:34;39.80;1.00
3846;DHT22;1938;50.812;7.738;2022-08-25T07:49:00;39.70;1.00
3846;DHT22;1938;50.812;7.738;2022-08-25T07:51:26;38.70;1.00
3846;DHT22;1938;50.812;7.738;2022-08-25T07:53:52;38.70;1.00
3846;DHT22;1938;50.812;7.738;2022-08-25T07:56:18;38.00;1.00
3846;DHT22;1938;50.812;7.738;2022-08-25T07:58:46;37.70;1.00
3846;DHT22;1938;50.812;7.738;2022-08-25T08:01:20;38.90;1.00
3846;DHT22;1938;50.812;7.738;2022-08-25T08:03:46;37.60;1.00
3846;DHT22;1938;50.812;7.738;2022-08-25T08:06:14;37.00;1.00
3846;DHT22;1938;50.812;7.738;2022-08-25T08:08:42;37.30;1.00
3846;DHT22;1938;50.812;7.738;2022-08-25T08:13:47;38.90;1.00
3846;DHT22;1938;50.812;7.738;2022-08-25T08:16:15;38.10;1.00
3846;DHT22;1938;50.812;7.738;2022-08-25T08:18:42;37.50;1.00
3846;DHT22;1938;50.812;7.738;2022-08-25T08:21:16;38.00;1.00
3846;DHT22;1938;50.812;7.738;2022-08-25T08:23:42;38.00;1.00
3846;DHT22;1938;50.812;7.738;2022-08-25T08:26:08;38.90;1.00
3846;DHT22;1938;50.812;7.738;2022-08-25T08:28:35;38.00;1.00
3846;DHT22;1938;50.812;7.738;2022-08-25T08:31:00;39.70;1.00
3846;DHT22;1938;50.812;7.738;2022-08-25T08:33:26;39.70;1.00
3846;DHT22;1938;50.812;7.738;2022-08-25T08:35:58;38.70;1.00
3846;DHT22;1938;50.812;7.738;2022-08-25T08:38:24;38.30;1.00
3846;DHT22;1938;50.812;7.738;2022-08-25T08:44:18;36.70;1.00
3846;DHT22;1938;50.812;7.738;2022-08-25T08:55:43;41.40;1.00
3846;DHT22;1938;50.812;7.738;2022-08-25T08:58:34;41.40;1.00
3846;DHT22;1938;50.812;7.738;2022-08-25T09:01:03;42.40;1.00
3846;DHT22;1938;50.812;7.738;2022-08-25T09:03:46;43.30;1.00
3846;DHT22;1938;50.812;7.738;2022-08-25T09:06:24;43.50;1.00
3846;DHT22;1938;50.812;7.738;2022-08-25T09:08:54;43.50;1.00
3846;DHT22;1938;50.812;7.738;2022-08-25T09:11:50;44.00;1.00
3846;DHT22;1938;50.812;7.738;2022-08-25T09:25:27;39.40;1.00
3846;DHT22;1938;50.812;7.738;2022-08-25T09:28:06;38.80;1.00
3846;DHT22;1938;50.812;7.738;2022-08-25T09:31:03;37.70;1.00
3846;DHT22;1938;50.812;7.738;2022-08-25T09:33:31;36.90;1.00
3846;DHT22;1938;50.812;7.738;2022-08-25T09:35:57;36.90;1.00
3846;DHT22;1938;50.812;7.738;2022-08-25T09:38:24;37.10;1.00
3846;DHT22;1938;50.812;7.738;2022-08-25T09:40:54;36.60;1.00
3846;DHT22;1938;50.812;7.738;2022-08-25T09:43:31;35.40;1.00
3846;DHT22;1938;50.812;7.738;2022-08-25T09:46:12;35.50;1.00
3846;DHT22;1938;50.812;7.738;2022-08-25T09:48:53;34.70;1.00
3846;DHT22;1938;50.812;7.738;2022-08-25T09:51:33;34.10;1.00
3846;DHT22;1938;50.812;7.738;2022-08-25T09:54:14;33.80;1.00
3846;DHT22;1938;50.812;7.738;2022-08-25T09:57:07;33.40;1.00
3846;DHT22;1938;50.812;7.738;2022-08-25T09:59:34;33.40;1.00
3846;DHT22;1938;50.812;7.738;2022-08-25T10:04:34;32.90;1.00
3846;DHT22;1938;50.812;7.738;2022-08-25T10:07:31;33.20;1.00
3846;DHT22;1938;50.812;7.738;2022-08-25T10:10:01;33.20;1.00
3846;DHT22;1938;50.812;7.738;2022-08-25T10:12:42;33.40;1.00
3846;DHT22;1938;50.812;7.738;2022-08-25T10:17:41;32.00;1.00
3846;DHT22;1938;50.812;7.738;2022-08-25T10:22:37;31.40;1.00
3846;DHT22;1938;50.812;7.738;2022-08-25T10:25:04;31.40;1.00
3846;DHT22;1938;50.812;7.738;2022-08-25T10:35:56;31.70;1.00
3846;DHT22;1938;50.812;7.738;2022-08-25T10:38:43;30.70;1.00
3846;DHT22;1938;50.812;7.738;2022-08-25T10:44:03;30.90;1.00
3846;DHT22;1938;50.812;7.738;2022-08-25T10:46:42;30.80;1.00
3846;DHT22;1938;50.812;7.738;2022-08-25T10:49:18;30.70;1.00
3846;DHT22;1938;50.812;7.738;2022-08-25T11:00:14;30.30;1.00
3846;DHT22;1938;50.812;7.738;2022-08-25T11:02:57;30.10;1.00
3846;DHT22;1938;50.812;7.738;2022-08-25T11:05:47;30.40;1.00
3846;DHT22;1938;50.812;7.738;2022-08-25T11:08:35;30.90;1.00
3846;DHT22;1938;50.812;7.738;2022-08-25T11:19:25;31.10;1.00
3846;DHT22;1938;50.812;7.738;2022-08-25T11:22:15;31.40;1.00
3846;DHT22;1938;50.812;7.738;2022-08-25T11:27:32;30.80;1.00
3846;DHT22;1938;50.812;7.738;2022-08-25T11:30:08;30.70;1.00
3846;DHT22;1938;50.812;7.738;2022-08-25T11:32:36;30.50;1.00
3846;DHT22;1938;50.812;7.738;2022-08-25T11:35:06;30.50;1.00
3846;DHT22;1938;50.812;7.738;2022-08-25T11:37:32;30.50;1.00
3846;DHT22;1938;50.812;7.738;2022-08-25T11:43:11;30.70;1.00
3846;DHT22;1938;50.812;7.738;2022-08-25T11:48:53;31.20;1.00
3846;DHT22;1938;50.812;7.738;2022-08-25T11:51:53;31.10;1.00
3846;DHT22;1938;50.812;7.738;2022-08-25T11:57:05;30.80;1.00
3846;DHT22;1938;50.812;7.738;2022-08-25T12:02:44;31.50;1.00
3846;DHT22;1938;50.812;7.738;2022-08-25T12:10:52;32.30;1.00
3846;DHT22;1938;50.812;7.738;2022-08-25T12:13:25;32.30;1.00
3846;DHT22;1938;50.812;7.738;2022-08-25T12:23:28;31.70;1.00
3846;DHT22;1938;50.812;7.738;2022-08-25T12:25:57;30.90;1.00
3846;DHT22;1938;50.812;7.738;2022-08-25T12:28:41;31.10;1.00
3846;DHT22;1938;50.812;7.738;2022-08-25T12:31:19;31.60;1.00
3846;DHT22;1938;50.812;7.738;2022-08-25T12:33:52;31.80;1.00
3846;DHT22;1938;50.812;7.738;2022-08-25T12:36:30;31.80;1.00
3846;DHT22;1938;50.812;7.738;2022-08-25T12:39:20;32.00;1.00
3846;DHT22;1938;50.812;7.738;2022-08-25T12:41:57;32.10;1.00
3846;DHT22;1938;50.812;7.738;2022-08-25T12:49:51;30.90;1.00
3846;DHT22;1938;50.812;7.738;2022-08-25T12:52:22;30.90;1.00
3846;DHT22;1938;50.812;7.738;2022-08-25T12:54:59;30.70;1.00
3846;DHT22;1938;50.812;7.738;2022-08-25T13:00:36;30.90;1.00
3846;DHT22;1938;50.812;7.738;2022-08-25T13:06:26;30.50;1.00
3846;DHT22;1938;50.812;7.738;2022-08-25T13:14:21;30.70;1.00
3846;DHT22;1938;50.812;7.738;2022-08-25T13:16:53;30.90;1.00
3846;DHT22;1938;50.812;7.738;2022-08-25T13:19:20;30.60;1.00
3846;DHT22;1938;50.812;7.738;2022-08-25T13:21:46;30.50;1.00
3846;DHT22;1938;50.812;7.738;2022-08-25T13:24:39;30.50;1.00
3846;DHT22;1938;50.812;7.738;2022-08-25T13:27:08;30.60;1.00
3846;DHT22;1938;50.812;7.738;2022-08-25T13:29:36;30.80;1.00
3846;DHT22;1938;50.812;7.738;2022-08-25T13:32:13;30.80;1.00
3846;DHT22;1938;50.812;7.738;2022-08-25T13:34:42;30.80;1.00
3846;DHT22;1938;50.812;7.738;2022-08-25T13:37:22;30.90;1.00
3846;DHT22;1938;50.812;7.738;2022-08-25T13:42:35;30.60;1.00
3846;DHT22;1938;50.812;7.738;2022-08-25T13:45:04;30.60;1.00
3846;DHT22;1938;50.812;7.738;2022-08-25T13:47:34;30.70;1.00
3846;DHT22;1938;50.812;7.738;2022-08-25T13:55:36;31.20;1.00
3846;DHT22;1938;50.812;7.738;2022-08-25T13:58:04;31.30;1.00
3846;DHT22;1938;50.812;7.738;2022-08-25T14:00:33;31.40;1.00
3846;DHT22;1938;50.812;7.738;2022-08-25T14:03:01;31.60;1.00
3846;DHT22;1938;50.812;7.738;2022-08-25T14:05:33;31.70;1.00
3846;DHT22;1938;50.812;7.738;2022-08-25T14:07:59;31.80;1.00
3846;DHT22;1938;50.812;7.738;2022-08-25T14:10:42;31.80;1.00
3846;DHT22;1938;50.812;7.738;2022-08-25T14:15:51;31.80;1.00
3846;DHT22;1938;50.812;7.738;2022-08-25T14:18:20;31.70;1.00
3846;DHT22;1938;50.812;7.738;2022-08-25T14:20:51;31.80;1.00
3846;DHT22;1938;50.812;7.738;2022-08-25T14:23:21;32.00;1.00
3846;DHT22;1938;50.812;7.738;2022-08-25T14:25:49;32.10;1.00
3846;DHT22;1938;50.812;7.738;2022-08-25T14:28:19;32.20;1.00
3846;DHT22;1938;50.812;7.738;2022-08-25T14:30:48;32.00;1.00
3846;DHT22;1938;50.812;7.738;2022-08-25T14:33:15;32.10;1.00
3846;DHT22;1938;50.812;7.738;2022-08-25T14:35:43;32.00;1.00
3846;DHT22;1938;50.812;7.738;2022-08-25T14:38:10;32.00;1.00
3846;DHT22;1938;50.812;7.738;2022-08-25T14:40:37;32.00;1.00
3846;DHT22;1938;50.812;7.738;2022-08-25T14:43:04;32.00;1.00
3846;DHT22;1938;50.812;7.738;2022-08-25T14:45:29;31.90;1.00
3846;DHT22;1938;50.812;7.738;2022-08-25T14:47:59;31.80;1.00
3846;DHT22;1938;50.812;7.738;2022-08-25T14:50:27;31.70;1.00
3846;DHT22;1938;50.812;7.738;2022-08-25T14:52:53;31.60;1.00
3846;DHT22;1938;50.812;7.738;2022-08-25T14:55:19;31.80;1.00
3846;DHT22;1938;50.812;7.738;2022-08-25T14:57:45;31.80;1.00
3846;DHT22;1938;50.812;7.738;2022-08-25T15:00:11;31.90;1.00
3846;DHT22;1938;50.812;7.738;2022-08-25T15:02:40;31.90;1.00
3846;DHT22;1938;50.812;7.738;2022-08-25T15:05:07;32.00;1.00
3846;DHT22;1938;50.812;7.738;2022-08-25T15:07:36;32.10;1.00
3846;DHT22;1938;50.812;7.738;2022-08-25T15:10:20;32.20;1.00
3846;DHT22;1938;50.812;7.738;2022-08-25T15:12:45;32.20;1.00
3846;DHT22;1938;50.812;7.738;2022-08-25T15:15:11;32.10;1.00
3846;DHT22;1938;50.812;7.738;2022-08-25T15:17:38;32.10;1.00
3846;DHT22;1938;50.812;7.738;2022-08-25T15:20:06;32.00;1.00
3846;DHT22;1938;50.812;7.738;2022-08-25T15:22:31;32.00;1.00
3846;DHT22;1938;50.812;7.738;2022-08-25T15:24:57;32.00;1.00
3846;DHT22;1938;50.812;7.738;2022-08-25T15:27:22;32.00;1.00
3846;DHT22;1938;50.812;7.738;2022-08-25T15:29:49;31.90;1.00
3846;DHT22;1938;50.812;7.738;2022-08-25T15:32:14;31.90;1.00
3846;DHT22;1938;50.812;7.738;2022-08-25T15:34:40;31.80;1.00
3846;DHT22;1938;50.812;7.738;2022-08-25T15:37:13;31.80;1.00
3846;DHT22;1938;50.812;7.738;2022-08-25T15:39:40;31.80;1.00
3846;DHT22;1938;50.812;7.738;2022-08-25T15:42:08;31.80;1.00
3846;DHT22;1938;50.812;7.738;2022-08-25T15:44:34;31.70;1.00
3846;DHT22;1938;50.812;7.738;2022-08-25T15:47:00;31.70;1.00
3846;DHT22;1938;50.812;7.738;2022-08-25T15:49:27;31.70;1.00
3846;DHT22;1938;50.812;7.738;2022-08-25T15:51:53;31.40;1.00
3846;DHT22;1938;50.812;7.738;2022-08-25T15:54:19;31.40;1.00
3846;DHT22;1938;50.812;7.738;2022-08-25T15:56:46;31.40;1.00
3846;DHT22;1938;50.812;7.738;2022-08-25T15:59:12;31.40;1.00
3846;DHT22;1938;50.812;7.738;2022-08-25T16:01:38;31.50;1.00
3846;DHT22;1938;50.812;7.738;2022-08-25T16:04:04;31.60;1.00
3846;DHT22;1938;50.812;7.738;2022-08-25T16:06:30;31.50;1.00
3846;DHT22;1938;50.812;7.738;2022-08-25T16:08:56;31.60;1.00
3846;DHT22;1938;50.812;7.738;2022-08-25T16:11:24;31.60;1.00
3846;DHT22;1938;50.812;7.738;2022-08-25T16:13:51;31.60;1.00
3846;DHT22;1938;50.812;7.738;2022-08-25T16:16:18;31.50;1.00
3846;DHT22;1938;50.812;7.738;2022-08-25T16:18:44;31.60;1.00
3846;DHT22;1938;50.812;7.738;2022-08-25T16:21:12;31.50;1.00
3846;DHT22;1938;50.812;7.738;2022-08-25T16:23:39;31.50;1.00
3846;DHT22;1938;50.812;7.738;2022-08-25T16:26:06;31.40;1.00
3846;DHT22;1938;50.812;7.738;2022-08-25T16:28:34;31.40;1.00
3846;DHT22;1938;50.812;7.738;2022-08-25T16:31:00;31.30;1.00
3846;DHT22;1938;50.812;7.738;2022-08-25T16:33:26;31.30;1.00
3846;DHT22;1938;50.812;7.738;2022-08-25T16:35:51;31.30;1.00
3846;DHT22;1938;50.812;7.738;2022-08-25T16:38:17;30.90;1.00
3846;DHT22;1938;50.812;7.738;2022-08-25T16:40:45;30.60;1.00
3846;DHT22;1938;50.812;7.738;2022-08-25T16:43:11;30.60;1.00
3846;DHT22;1938;50.812;7.738;2022-08-25T16:45:37;30.70;1.00
3846;DHT22;1938;50.812;7.738;2022-08-25T16:48:05;30.70;1.00
3846;DHT22;1938;50.812;7.738;2022-08-25T16:50:31;30.70;1.00
3846;DHT22;1938;50.812;7.738;2022-08-25T16:52:57;30.60;1.00
3846;DHT22;1938;50.812;7.738;2022-08-25T16:55:42;30.50;1.00
3846;DHT22;1938;50.812;7.738;2022-08-25T16:58:08;30.40;1.00
3846;DHT22;1938;50.812;7.738;2022-08-25T17:00:37;30.40;1.00
3846;DHT22;1938;50.812;7.738;2022-08-25T17:03:03;30.40;1.00
3846;DHT22;1938;50.812;7.738;2022-08-25T17:05:30;30.30;1.00
3846;DHT22;1938;50.812;7.738;2022-08-25T17:08:01;30.20;1.00
3846;DHT22;1938;50.812;7.738;2022-08-25T17:10:45;30.20;1.00
3846;DHT22;1938;50.812;7.738;2022-08-25T17:13:11;30.20;1.00
3846;DHT22;1938;50.812;7.738;2022-08-25T17:15:41;30.10;1.00
3846;DHT22;1938;50.812;7.738;2022-08-25T17:18:07;30.00;1.00
3846;DHT22;1938;50.812;7.738;2022-08-25T17:20:33;30.00;1.00
3846;DHT22;1938;50.812;7.738;2022-08-25T17:22:59;29.90;1.00
3846;DHT22;1938;50.812;7.738;2022-08-25T17:25:25;29.80;1.00
3846;DHT22;1938;50.812;7.738;2022-08-25T17:27:50;29.70;1.00
3846;DHT22;1938;50.812;7.738;2022-08-25T17:30:16;29.70;1.00
3846;DHT22;1938;50.812;7.738;2022-08-25T17:32:42;29.60;1.00
3846;DHT22;1938;50.812;7.738;2022-08-25T17:35:08;29.60;1.00
3846;DHT22;1938;50.812;7.738;2022-08-25T17:37:33;29.50;1.00
3846;DHT22;1938;50.812;7.738;2022-08-25T17:39:59;29.40;1.00
3846;DHT22;1938;50.812;7.738;2022-08-25T17:42:24;29.40;1.00
3846;DHT22;1938;50.812;7.738;2022-08-25T17:44:50;29.40;1.00
3846;DHT22;1938;50.812;7.738;2022-08-25T17:47:15;29.30;1.00
3846;DHT22;1938;50.812;7.738;2022-08-25T17:49:41;29.20;1.00
3846;DHT22;1938;50.812;7.738;2022-08-25T17:52:07;29.20;1.00
3846;DHT22;1938;50.812;7.738;2022-08-25T17:54:32;29.10;1.00
3846;DHT22;1938;50.812;7.738;2022-08-25T17:56:58;29.00;1.00
3846;DHT22;1938;50.812;7.738;2022-08-25T17:59:23;29.00;1.00
3846;DHT22;1938;50.812;7.738;2022-08-25T18:01:49;28.90;1.00
3846;DHT22;1938;50.812;7.738;2022-08-25T18:04:16;28.80;1.00
3846;DHT22;1938;50.812;7.738;2022-08-25T18:06:41;28.60;1.00
3846;DHT22;1938;50.812;7.738;2022-08-25T18:09:07;28.50;1.00
3846;DHT22;1938;50.812;7.738;2022-08-25T18:11:35;28.50;1.00
3846;DHT22;1938;50.812;7.738;2022-08-25T18:14:00;28.30;1.00
3846;DHT22;1938;50.812;7.738;2022-08-25T18:16:26;28.20;1.00
3846;DHT22;1938;50.812;7.738;2022-08-25T18:18:53;28.20;1.00
3846;DHT22;1938;50.812;7.738;2022-08-25T18:21:20;28.10;1.00
3846;DHT22;1938;50.812;7.738;2022-08-25T18:23:47;27.90;1.00
3846;DHT22;1938;50.812;7.738;2022-08-25T18:26:13;27.70;1.00
3846;DHT22;1938;50.812;7.738;2022-08-25T18:28:39;27.70;1.00
3846;DHT22;1938;50.812;7.738;2022-08-25T18:31:05;27.50;1.00